createdAt,value
2023-04-26T00:01:11.031Z,64.34
2023-04-26T00:04:24.617Z,63.74
2023-04-26T00:07:36.114Z,64.11
2023-04-26T00:10:51.066Z,64.13
2023-04-26T00:14:06.109Z,64.06
2023-04-26T00:17:19.841Z,64.49
2023-04-26T00:20:33.847Z,65.09
2023-04-26T00:23:51.551Z,65.51
2023-04-26T00:31:36.618Z,64.95
2023-04-26T00:36:32.710Z,64.48
2023-04-26T00:39:53.391Z,65.85
2023-04-26T00:43:57.869Z,66.43
2023-04-26T00:50:57.649Z,67.16
2023-04-26T00:54:30.389Z,67.21
2023-04-26T00:58:28.114Z,67.24
2023-04-26T01:01:48.579Z,67.48
2023-04-26T01:05:39.549Z,67.97
2023-04-26T01:09:11.583Z,67.34
2023-04-26T01:20:57.180Z,67.86
2023-04-26T01:25:13.704Z,68.32
2023-04-26T01:28:54.872Z,67.71
2023-04-26T01:32:25.295Z,67.70
2023-04-26T02:20:32.089Z,67.50
2023-04-26T02:29:16.434Z,67.15
2023-04-26T02:32:45.946Z,67.38
2023-04-26T02:36:21.351Z,66.86
2023-04-26T02:39:42.110Z,67.18
2023-04-26T02:43:13.460Z,67.07
2023-04-26T02:46:30.735Z,66.69
2023-04-26T02:49:57.064Z,66.65
2023-04-26T02:53:08.707Z,67.09
2023-04-26T02:56:25.086Z,66.67
2023-04-26T02:59:55.791Z,66.22
2023-04-26T03:03:49.300Z,66.48
2023-04-26T03:07:15.095Z,66.48
2023-04-26T03:11:05.961Z,66.28
2023-04-26T03:23:44.811Z,65.94
2023-04-26T03:44:28.300Z,65.88
2023-04-26T03:56:42.302Z,66.12
2023-04-26T03:59:56.169Z,66.05
2023-04-26T04:03:47.398Z,65.69
2023-04-26T04:07:32.272Z,65.63
2023-04-26T04:11:08.594Z,65.12
2023-04-26T04:15:22.802Z,64.60
2023-04-26T04:18:38.877Z,64.25
2023-04-26T04:22:15.412Z,63.88
2023-04-26T04:25:50.712Z,63.61
2023-04-26T04:29:14.873Z,60.59
2023-04-26T04:32:47.948Z,59.63
2023-04-26T04:36:13.723Z,60.95
2023-04-26T04:52:40.681Z,63.77
2023-04-26T04:56:09.188Z,64.07
2023-04-26T05:03:24.040Z,63.73
2023-04-26T05:10:25.109Z,63.59
2023-04-26T06:18:06.047Z,55.92
2023-04-26T06:21:10.311Z,54.93
2023-04-26T06:24:13.105Z,48.75
2023-04-26T06:27:16.903Z,44.67
2023-04-26T06:30:21.916Z,45.77
2023-04-26T06:33:25.784Z,43.63
2023-04-26T06:36:28.241Z,42.01
2023-04-26T06:39:32.555Z,43.88
2023-04-26T06:42:35.834Z,47.90
2023-04-26T06:45:40.512Z,49.34
2023-04-26T06:48:51.745Z,49.75
2023-04-26T06:52:21.052Z,49.56
2023-04-26T07:04:58.147Z,47.01
2023-04-26T07:08:37.264Z,47.94
2023-04-26T07:11:42.298Z,41.44
2023-04-26T07:14:51.878Z,38.23
2023-04-26T07:22:30.559Z,38.08
2023-04-26T07:25:35.589Z,36.63
2023-04-26T07:28:41.042Z,37.90
2023-04-26T07:38:52.382Z,36.10
2023-04-26T07:41:57.983Z,38.57
2023-04-26T07:45:07.388Z,40.79
2023-04-26T07:48:10.128Z,40.37
2023-04-26T07:51:13.779Z,40.91
2023-04-26T07:54:16.750Z,40.78
2023-04-26T07:57:20.282Z,40.64
2023-04-26T08:36:20.159Z,41.26
2023-04-26T08:52:43.804Z,39.63
2023-04-26T08:56:12.190Z,38.85
2023-04-26T09:09:22.767Z,38.10
2023-04-26T09:22:26.850Z,37.77
2023-04-26T09:27:47.673Z,37.24
2023-04-26T09:31:44.846Z,37.40
2023-04-26T09:35:38.482Z,37.00
2023-04-26T09:39:25.165Z,36.56
2023-04-26T09:43:35.429Z,36.36
2023-04-26T10:59:17.733Z,32.65
2023-04-26T11:02:21.395Z,32.76
2023-04-26T11:05:45.648Z,33.52
2023-04-26T11:08:48.732Z,34.26
2023-04-26T11:12:01.762Z,34.24
2023-04-26T11:16:10.268Z,32.68
2023-04-26T11:19:00.774Z,32.83
2023-04-26T11:22:47.212Z,31.87
2023-04-26T11:30:06.852Z,30.79
2023-04-26T11:33:36.998Z,29.35
2023-04-26T11:36:50.503Z,31.58
2023-04-26T11:40:01.897Z,31.93
2023-04-26T11:43:11.952Z,32.87
2023-04-26T11:46:16.828Z,33.52
2023-04-26T11:49:27.140Z,32.19
2023-04-26T11:52:50.557Z,33.73
2023-04-26T11:56:58.852Z,32.64
2023-04-26T12:00:26.580Z,31.45
2023-04-26T12:03:36.840Z,31.50
2023-04-26T12:06:53.064Z,32.09
2023-04-26T12:10:24.577Z,32.49
2023-04-26T12:13:36.650Z,31.41
2023-04-26T12:27:08.180Z,31.31
2023-04-26T12:30:41.757Z,32.65
2023-04-26T12:33:51.886Z,33.40
2023-04-26T12:37:01.982Z,33.17
2023-04-26T12:44:21.861Z,32.24
2023-04-26T12:47:39.746Z,31.49
2023-04-26T12:55:24.267Z,31.49
2023-04-26T12:59:01.137Z,32.18
2023-04-26T13:28:36.489Z,32.78
2023-04-26T13:36:22.627Z,31.57
2023-04-26T13:39:30.203Z,32.06
2023-04-26T13:42:43.889Z,31.87
2023-04-26T13:46:02.518Z,31.79
2023-04-26T13:49:38.232Z,31.94
2023-04-26T13:57:42.924Z,32.45
2023-04-26T14:01:11.510Z,32.87
2023-04-26T14:04:24.433Z,33.97
2023-04-26T14:07:47.811Z,33.95
2023-04-26T14:11:04.109Z,31.76
2023-04-26T14:14:52.401Z,31.73
2023-04-26T14:18:01.722Z,32.41
2023-04-26T14:21:12.738Z,32.79
2023-04-26T14:24:42.709Z,31.73
2023-04-26T14:28:10.874Z,31.82
2023-04-26T14:31:29.622Z,32.51
2023-04-26T14:34:49.755Z,32.81
2023-04-26T14:38:30.206Z,32.66
2023-04-26T14:42:55.538Z,32.28
2023-04-26T14:46:10.158Z,31.72
2023-04-26T14:58:00.563Z,34.96
2023-04-26T15:02:02.678Z,35.12
2023-04-26T15:05:51.844Z,34.38
2023-04-26T15:09:50.555Z,33.56
2023-04-26T15:17:26.556Z,32.85
2023-04-26T15:25:44.545Z,34.26
2023-04-26T15:43:25.749Z,35.08
2023-04-26T15:47:45.210Z,34.49
2023-04-26T15:51:30.481Z,33.83
2023-04-26T15:55:23.264Z,33.88
2023-04-26T16:03:07.898Z,33.75
2023-04-26T16:07:12.990Z,32.74
2023-04-26T16:10:40.445Z,31.53
2023-04-26T16:32:50.549Z,31.96
2023-04-26T16:36:29.873Z,32.43
2023-04-26T16:40:37.619Z,32.81
2023-04-26T16:48:21.656Z,33.33
2023-04-26T16:51:53.128Z,34.04
2023-04-26T16:55:25.083Z,34.00
2023-04-26T16:59:18.003Z,34.54
2023-04-26T17:03:24.135Z,34.80
2023-04-26T17:16:14.282Z,34.49
2023-04-26T17:25:12.862Z,35.35
2023-04-26T17:42:20.569Z,35.36
2023-04-26T17:45:38.894Z,35.19
2023-04-26T17:49:10.313Z,35.09
2023-04-26T17:52:35.906Z,35.17
2023-04-26T17:55:58.119Z,35.35
2023-04-26T18:02:52.801Z,34.80
2023-04-26T18:06:21.634Z,34.96
2023-04-26T18:09:29.309Z,34.99
2023-04-26T18:12:33.614Z,35.06
2023-04-26T18:15:41.519Z,35.31
2023-04-26T18:18:48.768Z,35.25
2023-04-26T18:21:56.441Z,35.74
2023-04-26T18:25:04.339Z,36.57
2023-04-26T18:28:10.490Z,36.59
2023-04-26T18:31:23.713Z,36.11
2023-04-26T18:34:27.373Z,36.48
2023-04-26T18:37:33.415Z,37.14
2023-04-26T18:40:36.990Z,36.83
2023-04-26T18:43:48.974Z,37.15
2023-04-26T18:47:16.201Z,37.31
2023-04-26T18:50:26.546Z,36.64
2023-04-26T18:53:41.800Z,36.84
2023-04-26T19:00:35.742Z,37.12
2023-04-26T19:07:30.393Z,37.30
2023-04-26T19:11:15.423Z,37.00
2023-04-26T19:15:02.615Z,36.71
2023-04-26T19:18:18.683Z,37.16
2023-04-26T19:21:35.976Z,36.89
2023-04-26T19:24:58.709Z,36.35
2023-04-26T19:28:19.583Z,37.17
2023-04-26T19:35:28.978Z,36.54
2023-04-26T19:38:33.480Z,36.91
2023-04-26T19:41:41.267Z,36.71
2023-04-26T19:48:25.701Z,36.88
2023-04-26T19:51:44.043Z,36.86
2023-04-26T19:54:56.311Z,37.36
2023-04-26T19:58:13.699Z,36.86
2023-04-26T20:01:19.983Z,37.56
2023-04-26T20:04:31.236Z,37.87
2023-04-26T20:07:37.457Z,37.95
2023-04-26T20:10:42.075Z,38.37
2023-04-26T20:14:03.147Z,38.08
2023-04-26T20:17:07.748Z,38.14
2023-04-26T20:20:12.650Z,38.32
2023-04-26T20:23:16.686Z,37.94
2023-04-26T20:26:29.049Z,38.01
2023-04-26T20:29:39.512Z,37.84
2023-04-26T20:32:43.833Z,37.70
2023-04-26T20:35:47.398Z,38.39
2023-04-26T20:38:57.220Z,38.22
2023-04-26T20:42:04.286Z,38.68
2023-04-26T20:45:07.981Z,38.44
2023-04-26T20:48:14.218Z,38.92
2023-04-26T20:51:17.496Z,39.29
2023-04-26T20:54:26.312Z,39.58
2023-04-26T20:57:30.408Z,39.97
2023-04-26T21:00:33.999Z,40.06
2023-04-26T21:03:39.969Z,40.47
2023-04-26T21:06:43.314Z,40.68
2023-04-26T21:10:14.103Z,40.88
2023-04-26T21:13:20.787Z,41.30
2023-04-26T21:16:29.333Z,41.37
2023-04-26T21:19:33.282Z,41.42
2023-04-26T21:22:43.079Z,41.77
2023-04-26T21:25:54.173Z,41.83
2023-04-26T21:29:04.703Z,42.03
2023-04-26T21:32:15.680Z,42.36
2023-04-26T21:35:24.465Z,42.75
2023-04-26T21:38:38.085Z,42.42
2023-04-26T21:41:47.613Z,43.07
2023-04-26T21:44:56.084Z,43.04
2023-04-26T21:48:23.213Z,43.11
2023-04-26T21:51:56.705Z,43.36
2023-04-26T21:55:08.263Z,43.40
2023-04-26T21:58:35.114Z,43.57
2023-04-26T22:01:51.777Z,43.50
2023-04-26T22:08:59.213Z,43.53
2023-04-26T22:13:04.486Z,43.25
2023-04-26T22:21:30.537Z,43.74
2023-04-26T22:25:29.782Z,43.54
2023-04-26T22:33:15.804Z,43.96
2023-04-26T22:37:17.329Z,44.11
2023-04-26T22:48:58.614Z,46.58
2023-04-26T22:52:17.114Z,47.08
2023-04-26T22:56:16.381Z,47.36
2023-04-26T23:00:07.782Z,47.26
2023-04-26T23:12:48.834Z,46.27
2023-04-26T23:17:15.538Z,46.19
2023-04-26T23:20:50.810Z,46.09
2023-04-26T23:24:23.118Z,46.45
2023-04-26T23:27:44.132Z,46.35
2023-04-26T23:31:03.838Z,44.94
2023-04-26T23:34:24.774Z,45.18
2023-04-26T23:37:52.999Z,45.27
2023-04-26T23:41:07.073Z,45.93
2023-04-26T23:44:21.789Z,46.89
2023-04-26T23:47:33.293Z,47.90
2023-04-26T23:50:38.077Z,48.22
2023-04-26T23:53:47.550Z,48.25
2023-04-26T23:56:55.787Z,49.15
